sensor_id;sensor_type;location;lat;lon;timestamp;P1;durP1;ratioP1;P2;durP2;ratioP2
83465;SDS011;73393;51.946;20.140;2024-02-04T00:00:43;7.10;;;3.07;;
83465;SDS011;73393;51.946;20.140;2024-02-04T00:03:08;8.20;;;3.47;;
83465;SDS011;73393;51.946;20.140;2024-02-04T00:05:34;6.43;;;3.73;;
83465;SDS011;73393;51.946;20.140;2024-02-04T00:07:59;5.03;;;3.30;;
83465;SDS011;73393;51.946;20.140;2024-02-04T00:10:25;5.57;;;3.33;;
83465;SDS011;73393;51.946;20.140;2024-02-04T00:12:51;5.60;;;3.30;;
83465;SDS011;73393;51.946;20.140;2024-02-04T00:15:17;7.17;;;3.60;;
83465;SDS011;73393;51.946;20.140;2024-02-04T00:17:42;8.20;;;4.00;;
83465;SDS011;73393;51.946;20.140;2024-02-04T00:20:08;5.83;;;3.30;;
83465;SDS011;73393;51.946;20.140;2024-02-04T00:22:34;7.40;;;3.07;;
83465;SDS011;73393;51.946;20.140;2024-02-04T00:25:00;6.70;;;3.10;;
83465;SDS011;73393;51.946;20.140;2024-02-04T00:27:36;6.10;;;4.27;;
83465;SDS011;73393;51.946;20.140;2024-02-04T00:30:02;6.67;;;3.33;;
83465;SDS011;73393;51.946;20.140;2024-02-04T00:32:27;5.70;;;3.03;;
83465;SDS011;73393;51.946;20.140;2024-02-04T00:34:53;8.93;;;3.73;;
83465;SDS011;73393;51.946;20.140;2024-02-04T00:37:19;10.07;;;4.23;;
83465;SDS011;73393;51.946;20.140;2024-02-04T00:39:44;6.07;;;3.60;;
83465;SDS011;73393;51.946;20.140;2024-02-04T00:42:10;6.63;;;4.30;;
83465;SDS011;73393;51.946;20.140;2024-02-04T00:44:36;7.47;;;3.33;;
83465;SDS011;73393;51.946;20.140;2024-02-04T00:47:01;7.37;;;3.67;;
83465;SDS011;73393;51.946;20.140;2024-02-04T00:49:28;8.20;;;3.77;;
83465;SDS011;73393;51.946;20.140;2024-02-04T00:51:53;6.23;;;3.10;;
83465;SDS011;73393;51.946;20.140;2024-02-04T00:54:19;7.40;;;3.93;;
83465;SDS011;73393;51.946;20.140;2024-02-04T00:56:44;6.40;;;2.87;;
83465;SDS011;73393;51.946;20.140;2024-02-04T00:59:10;6.60;;;3.27;;
83465;SDS011;73393;51.946;20.140;2024-02-04T01:01:37;9.47;;;3.27;;
83465;SDS011;73393;51.946;20.140;2024-02-04T01:04:02;10.30;;;4.03;;
83465;SDS011;73393;51.946;20.140;2024-02-04T01:06:28;10.27;;;3.37;;
83465;SDS011;73393;51.946;20.140;2024-02-04T01:08:55;7.60;;;3.10;;
83465;SDS011;73393;51.946;20.140;2024-02-04T01:11:21;8.13;;;2.93;;
83465;SDS011;73393;51.946;20.140;2024-02-04T01:13:46;6.57;;;2.93;;
83465;SDS011;73393;51.946;20.140;2024-02-04T01:16:12;7.67;;;2.90;;
83465;SDS011;73393;51.946;20.140;2024-02-04T01:18:38;6.57;;;2.90;;
83465;SDS011;73393;51.946;20.140;2024-02-04T01:21:03;6.77;;;2.33;;
83465;SDS011;73393;51.946;20.140;2024-02-04T01:23:29;4.30;;;2.07;;
83465;SDS011;73393;51.946;20.140;2024-02-04T01:25:55;9.73;;;2.53;;
83465;SDS011;73393;51.946;20.140;2024-02-04T01:28:20;4.43;;;2.40;;
83465;SDS011;73393;51.946;20.140;2024-02-04T01:30:46;6.93;;;3.13;;
83465;SDS011;73393;51.946;20.140;2024-02-04T01:33:11;6.27;;;2.80;;
83465;SDS011;73393;51.946;20.140;2024-02-04T01:35:37;4.73;;;1.73;;
83465;SDS011;73393;51.946;20.140;2024-02-04T01:38:02;7.23;;;2.47;;
83465;SDS011;73393;51.946;20.140;2024-02-04T01:40:28;7.83;;;2.00;;
83465;SDS011;73393;51.946;20.140;2024-02-04T01:42:54;6.53;;;2.37;;
83465;SDS011;73393;51.946;20.140;2024-02-04T01:45:19;7.97;;;2.37;;
83465;SDS011;73393;51.946;20.140;2024-02-04T01:47:45;6.50;;;2.17;;
83465;SDS011;73393;51.946;20.140;2024-02-04T01:50:10;5.73;;;2.40;;
83465;SDS011;73393;51.946;20.140;2024-02-04T01:52:37;5.73;;;2.10;;
83465;SDS011;73393;51.946;20.140;2024-02-04T01:55:04;4.60;;;2.43;;
83465;SDS011;73393;51.946;20.140;2024-02-04T01:57:34;8.53;;;2.67;;
83465;SDS011;73393;51.946;20.140;2024-02-04T02:00:00;10.73;;;3.43;;
83465;SDS011;73393;51.946;20.140;2024-02-04T02:02:25;7.70;;;2.47;;
83465;SDS011;73393;51.946;20.140;2024-02-04T02:04:51;6.60;;;2.83;;
83465;SDS011;73393;51.946;20.140;2024-02-04T02:07:20;6.23;;;2.50;;
83465;SDS011;73393;51.946;20.140;2024-02-04T02:09:46;5.83;;;2.77;;
83465;SDS011;73393;51.946;20.140;2024-02-04T02:14:54;8.43;;;2.57;;
83465;SDS011;73393;51.946;20.140;2024-02-04T02:17:26;8.40;;;3.27;;
83465;SDS011;73393;51.946;20.140;2024-02-04T02:20:09;5.23;;;2.70;;
83465;SDS011;73393;51.946;20.140;2024-02-04T02:22:50;4.37;;;2.27;;
83465;SDS011;73393;51.946;20.140;2024-02-04T02:25:27;3.93;;;2.33;;
83465;SDS011;73393;51.946;20.140;2024-02-04T02:27:53;6.10;;;3.57;;
83465;SDS011;73393;51.946;20.140;2024-02-04T02:30:19;8.27;;;2.63;;
83465;SDS011;73393;51.946;20.140;2024-02-04T02:32:45;4.50;;;2.13;;
83465;SDS011;73393;51.946;20.140;2024-02-04T02:35:14;8.27;;;2.67;;
83465;SDS011;73393;51.946;20.140;2024-02-04T02:42:38;7.60;;;2.93;;
83465;SDS011;73393;51.946;20.140;2024-02-04T02:45:06;8.57;;;2.60;;
83465;SDS011;73393;51.946;20.140;2024-02-04T02:47:34;5.80;;;2.10;;
83465;SDS011;73393;51.946;20.140;2024-02-04T02:50:01;7.00;;;2.77;;
83465;SDS011;73393;51.946;20.140;2024-02-04T02:52:27;9.30;;;2.70;;
83465;SDS011;73393;51.946;20.140;2024-02-04T02:54:52;4.70;;;1.70;;
83465;SDS011;73393;51.946;20.140;2024-02-04T02:57:18;5.57;;;2.10;;
83465;SDS011;73393;51.946;20.140;2024-02-04T02:59:43;9.07;;;2.93;;
83465;SDS011;73393;51.946;20.140;2024-02-04T03:02:09;5.27;;;2.77;;
83465;SDS011;73393;51.946;20.140;2024-02-04T03:04:34;8.47;;;2.20;;
83465;SDS011;73393;51.946;20.140;2024-02-04T03:07:00;6.67;;;2.63;;
83465;SDS011;73393;51.946;20.140;2024-02-04T03:09:26;3.07;;;1.87;;
83465;SDS011;73393;51.946;20.140;2024-02-04T03:11:51;8.87;;;2.33;;
83465;SDS011;73393;51.946;20.140;2024-02-04T03:14:17;4.27;;;1.90;;
83465;SDS011;73393;51.946;20.140;2024-02-04T03:16:43;11.43;;;4.53;;
83465;SDS011;73393;51.946;20.140;2024-02-04T03:19:10;9.27;;;4.03;;
83465;SDS011;73393;51.946;20.140;2024-02-04T03:21:35;7.80;;;3.03;;
83465;SDS011;73393;51.946;20.140;2024-02-04T03:24:01;15.97;;;5.97;;
83465;SDS011;73393;51.946;20.140;2024-02-04T03:26:27;15.47;;;7.47;;
83465;SDS011;73393;51.946;20.140;2024-02-04T03:28:52;20.10;;;6.97;;
83465;SDS011;73393;51.946;20.140;2024-02-04T03:31:21;17.27;;;7.97;;
83465;SDS011;73393;51.946;20.140;2024-02-04T03:33:48;8.00;;;4.07;;
83465;SDS011;73393;51.946;20.140;2024-02-04T03:36:19;15.47;;;6.47;;
83465;SDS011;73393;51.946;20.140;2024-02-04T03:38:48;11.77;;;4.70;;
83465;SDS011;73393;51.946;20.140;2024-02-04T03:41:14;9.70;;;4.27;;
83465;SDS011;73393;51.946;20.140;2024-02-04T03:43:39;8.37;;;3.70;;
83465;SDS011;73393;51.946;20.140;2024-02-04T03:46:05;8.73;;;3.60;;
83465;SDS011;73393;51.946;20.140;2024-02-04T03:48:30;10.33;;;3.73;;
83465;SDS011;73393;51.946;20.140;2024-02-04T03:50:56;7.00;;;2.53;;
83465;SDS011;73393;51.946;20.140;2024-02-04T03:53:21;8.87;;;3.30;;
83465;SDS011;73393;51.946;20.140;2024-02-04T03:55:48;4.47;;;1.63;;
83465;SDS011;73393;51.946;20.140;2024-02-04T03:58:14;7.83;;;2.20;;
83465;SDS011;73393;51.946;20.140;2024-02-04T04:00:40;7.07;;;2.67;;
83465;SDS011;73393;51.946;20.140;2024-02-04T04:03:05;5.73;;;2.10;;
83465;SDS011;73393;51.946;20.140;2024-02-04T04:05:31;9.50;;;2.67;;
83465;SDS011;73393;51.946;20.140;2024-02-04T04:07:56;4.03;;;1.87;;
83465;SDS011;73393;51.946;20.140;2024-02-04T04:10:22;6.70;;;1.57;;
83465;SDS011;73393;51.946;20.140;2024-02-04T04:12:48;7.87;;;2.63;;
83465;SDS011;73393;51.946;20.140;2024-02-04T04:15:13;7.00;;;1.90;;
83465;SDS011;73393;51.946;20.140;2024-02-04T04:17:39;4.37;;;2.20;;
83465;SDS011;73393;51.946;20.140;2024-02-04T04:20:06;7.77;;;1.80;;
83465;SDS011;73393;51.946;20.140;2024-02-04T04:22:32;6.17;;;2.10;;
83465;SDS011;73393;51.946;20.140;2024-02-04T04:24:58;7.00;;;1.50;;
83465;SDS011;73393;51.946;20.140;2024-02-04T04:27:23;5.20;;;2.20;;
83465;SDS011;73393;51.946;20.140;2024-02-04T04:29:49;6.33;;;1.80;;
83465;SDS011;73393;51.946;20.140;2024-02-04T04:32:14;10.30;;;1.80;;
83465;SDS011;73393;51.946;20.140;2024-02-04T04:34:40;10.47;;;2.20;;
83465;SDS011;73393;51.946;20.140;2024-02-04T04:37:05;11.47;;;1.90;;
83465;SDS011;73393;51.946;20.140;2024-02-04T04:39:31;7.10;;;2.17;;
83465;SDS011;73393;51.946;20.140;2024-02-04T04:41:57;4.77;;;1.50;;
83465;SDS011;73393;51.946;20.140;2024-02-04T04:44:22;7.27;;;1.73;;
83465;SDS011;73393;51.946;20.140;2024-02-04T04:46:48;7.47;;;2.27;;
83465;SDS011;73393;51.946;20.140;2024-02-04T04:49:14;6.70;;;1.40;;
83465;SDS011;73393;51.946;20.140;2024-02-04T04:51:39;5.90;;;3.03;;
83465;SDS011;73393;51.946;20.140;2024-02-04T04:54:10;9.30;;;2.03;;
83465;SDS011;73393;51.946;20.140;2024-02-04T04:56:39;7.00;;;2.80;;
83465;SDS011;73393;51.946;20.140;2024-02-04T04:59:06;6.13;;;2.00;;
83465;SDS011;73393;51.946;20.140;2024-02-04T05:01:32;5.10;;;1.73;;
83465;SDS011;73393;51.946;20.140;2024-02-04T05:03:57;5.67;;;1.70;;
83465;SDS011;73393;51.946;20.140;2024-02-04T05:06:23;6.70;;;1.70;;
83465;SDS011;73393;51.946;20.140;2024-02-04T05:08:48;8.73;;;2.03;;
83465;SDS011;73393;51.946;20.140;2024-02-04T05:11:14;6.70;;;2.80;;
83465;SDS011;73393;51.946;20.140;2024-02-04T05:13:40;5.33;;;1.87;;
83465;SDS011;73393;51.946;20.140;2024-02-04T05:16:05;10.67;;;3.43;;
83465;SDS011;73393;51.946;20.140;2024-02-04T05:18:31;12.30;;;2.90;;
83465;SDS011;73393;51.946;20.140;2024-02-04T05:20:56;6.43;;;1.50;;
83465;SDS011;73393;51.946;20.140;2024-02-04T05:23:22;5.80;;;2.00;;
83465;SDS011;73393;51.946;20.140;2024-02-04T05:25:48;7.20;;;3.20;;
83465;SDS011;73393;51.946;20.140;2024-02-04T05:28:13;8.67;;;2.03;;
83465;SDS011;73393;51.946;20.140;2024-02-04T05:30:39;8.50;;;2.33;;
83465;SDS011;73393;51.946;20.140;2024-02-04T05:33:04;5.70;;;1.97;;
83465;SDS011;73393;51.946;20.140;2024-02-04T05:35:30;7.27;;;1.83;;
83465;SDS011;73393;51.946;20.140;2024-02-04T05:37:56;7.47;;;2.30;;
83465;SDS011;73393;51.946;20.140;2024-02-04T05:40:22;7.10;;;2.17;;
83465;SDS011;73393;51.946;20.140;2024-02-04T05:42:47;6.57;;;2.73;;
83465;SDS011;73393;51.946;20.140;2024-02-04T05:45:13;8.10;;;2.07;;
83465;SDS011;73393;51.946;20.140;2024-02-04T05:47:38;4.80;;;2.50;;
83465;SDS011;73393;51.946;20.140;2024-02-04T05:50:04;9.80;;;2.30;;
83465;SDS011;73393;51.946;20.140;2024-02-04T05:52:30;12.73;;;3.70;;
83465;SDS011;73393;51.946;20.140;2024-02-04T05:54:56;4.17;;;1.57;;
83465;SDS011;73393;51.946;20.140;2024-02-04T05:57:22;6.17;;;2.90;;
83465;SDS011;73393;51.946;20.140;2024-02-04T05:59:47;7.17;;;2.50;;
83465;SDS011;73393;51.946;20.140;2024-02-04T06:02:13;11.30;;;4.37;;
83465;SDS011;73393;51.946;20.140;2024-02-04T06:04:39;7.10;;;2.70;;
83465;SDS011;73393;51.946;20.140;2024-02-04T06:07:05;7.77;;;3.30;;
83465;SDS011;73393;51.946;20.140;2024-02-04T06:09:31;10.10;;;2.77;;
83465;SDS011;73393;51.946;20.140;2024-02-04T06:11:58;12.30;;;3.33;;
83465;SDS011;73393;51.946;20.140;2024-02-04T06:14:24;11.00;;;3.57;;
83465;SDS011;73393;51.946;20.140;2024-02-04T06:16:49;7.07;;;3.07;;
83465;SDS011;73393;51.946;20.140;2024-02-04T06:19:15;6.37;;;2.10;;
83465;SDS011;73393;51.946;20.140;2024-02-04T06:21:40;8.30;;;2.13;;
83465;SDS011;73393;51.946;20.140;2024-02-04T06:24:06;11.13;;;4.10;;
83465;SDS011;73393;51.946;20.140;2024-02-04T06:26:32;6.17;;;2.87;;
83465;SDS011;73393;51.946;20.140;2024-02-04T06:28:58;6.13;;;2.77;;
83465;SDS011;73393;51.946;20.140;2024-02-04T06:31:25;6.53;;;2.60;;
83465;SDS011;73393;51.946;20.140;2024-02-04T06:33:50;9.20;;;3.00;;
83465;SDS011;73393;51.946;20.140;2024-02-04T06:36:16;7.73;;;3.33;;
83465;SDS011;73393;51.946;20.140;2024-02-04T06:38:42;7.03;;;2.80;;
83465;SDS011;73393;51.946;20.140;2024-02-04T06:41:07;5.93;;;2.20;;
83465;SDS011;73393;51.946;20.140;2024-02-04T06:43:33;8.63;;;2.60;;
83465;SDS011;73393;51.946;20.140;2024-02-04T06:46:01;9.57;;;3.77;;
83465;SDS011;73393;51.946;20.140;2024-02-04T06:48:27;7.97;;;2.60;;
83465;SDS011;73393;51.946;20.140;2024-02-04T06:50:53;10.37;;;3.87;;
83465;SDS011;73393;51.946;20.140;2024-02-04T06:53:18;5.43;;;2.47;;
83465;SDS011;73393;51.946;20.140;2024-02-04T06:55:44;8.40;;;3.07;;
83465;SDS011;73393;51.946;20.140;2024-02-04T06:58:09;5.27;;;2.80;;
83465;SDS011;73393;51.946;20.140;2024-02-04T07:00:35;13.03;;;4.83;;
83465;SDS011;73393;51.946;20.140;2024-02-04T07:03:00;9.73;;;3.03;;
83465;SDS011;73393;51.946;20.140;2024-02-04T07:05:26;9.60;;;3.77;;
83465;SDS011;73393;51.946;20.140;2024-02-04T07:07:52;17.50;;;5.07;;
83465;SDS011;73393;51.946;20.140;2024-02-04T07:10:17;13.30;;;3.07;;
83465;SDS011;73393;51.946;20.140;2024-02-04T07:12:44;11.97;;;4.67;;
83465;SDS011;73393;51.946;20.140;2024-02-04T07:15:09;13.93;;;5.63;;
83465;SDS011;73393;51.946;20.140;2024-02-04T07:17:35;13.20;;;5.80;;
83465;SDS011;73393;51.946;20.140;2024-02-04T07:20:01;14.17;;;6.27;;
83465;SDS011;73393;51.946;20.140;2024-02-04T07:22:27;9.90;;;3.70;;
83465;SDS011;73393;51.946;20.140;2024-02-04T07:24:53;12.67;;;6.30;;
83465;SDS011;73393;51.946;20.140;2024-02-04T07:27:18;8.80;;;3.37;;
83465;SDS011;73393;51.946;20.140;2024-02-04T07:29:44;12.70;;;6.10;;
83465;SDS011;73393;51.946;20.140;2024-02-04T07:32:09;8.47;;;3.10;;
83465;SDS011;73393;51.946;20.140;2024-02-04T07:34:35;10.93;;;3.47;;
83465;SDS011;73393;51.946;20.140;2024-02-04T07:37:01;9.67;;;4.50;;
83465;SDS011;73393;51.946;20.140;2024-02-04T07:39:27;12.13;;;3.37;;
83465;SDS011;73393;51.946;20.140;2024-02-04T07:41:53;11.50;;;2.73;;
83465;SDS011;73393;51.946;20.140;2024-02-04T07:44:20;9.40;;;3.37;;
83465;SDS011;73393;51.946;20.140;2024-02-04T07:46:48;12.63;;;2.83;;
83465;SDS011;73393;51.946;20.140;2024-02-04T07:49:13;8.57;;;2.50;;
83465;SDS011;73393;51.946;20.140;2024-02-04T07:51:39;10.70;;;3.03;;
83465;SDS011;73393;51.946;20.140;2024-02-04T07:54:05;9.97;;;4.90;;
83465;SDS011;73393;51.946;20.140;2024-02-04T07:56:30;7.43;;;2.97;;
83465;SDS011;73393;51.946;20.140;2024-02-04T07:58:56;8.77;;;3.10;;
83465;SDS011;73393;51.946;20.140;2024-02-04T08:01:21;10.13;;;4.37;;
83465;SDS011;73393;51.946;20.140;2024-02-04T08:03:48;8.67;;;4.40;;
83465;SDS011;73393;51.946;20.140;2024-02-04T08:06:14;10.83;;;4.17;;
83465;SDS011;73393;51.946;20.140;2024-02-04T08:08:40;10.63;;;3.33;;
83465;SDS011;73393;51.946;20.140;2024-02-04T08:11:07;9.17;;;3.57;;
83465;SDS011;73393;51.946;20.140;2024-02-04T08:13:32;5.97;;;2.27;;
83465;SDS011;73393;51.946;20.140;2024-02-04T08:15:58;10.53;;;3.17;;
83465;SDS011;73393;51.946;20.140;2024-02-04T08:18:24;8.57;;;3.20;;
83465;SDS011;73393;51.946;20.140;2024-02-04T08:20:50;13.73;;;5.33;;
83465;SDS011;73393;51.946;20.140;2024-02-04T08:23:15;7.37;;;3.33;;
83465;SDS011;73393;51.946;20.140;2024-02-04T08:25:41;11.00;;;4.00;;
83465;SDS011;73393;51.946;20.140;2024-02-04T08:28:06;6.40;;;2.57;;
83465;SDS011;73393;51.946;20.140;2024-02-04T08:30:32;11.97;;;3.70;;
83465;SDS011;73393;51.946;20.140;2024-02-04T08:32:57;8.47;;;3.30;;
83465;SDS011;73393;51.946;20.140;2024-02-04T08:35:23;7.63;;;3.30;;
83465;SDS011;73393;51.946;20.140;2024-02-04T08:37:48;8.43;;;2.87;;
83465;SDS011;73393;51.946;20.140;2024-02-04T08:40:14;9.70;;;3.57;;
83465;SDS011;73393;51.946;20.140;2024-02-04T08:42:40;11.37;;;3.27;;
83465;SDS011;73393;51.946;20.140;2024-02-04T08:45:06;10.10;;;2.40;;
83465;SDS011;73393;51.946;20.140;2024-02-04T08:47:32;8.30;;;3.33;;
83465;SDS011;73393;51.946;20.140;2024-02-04T08:49:57;10.30;;;2.50;;
83465;SDS011;73393;51.946;20.140;2024-02-04T08:52:24;7.20;;;3.93;;
83465;SDS011;73393;51.946;20.140;2024-02-04T08:54:49;9.33;;;3.87;;
83465;SDS011;73393;51.946;20.140;2024-02-04T08:57:15;11.23;;;3.63;;
83465;SDS011;73393;51.946;20.140;2024-02-04T08:59:41;12.10;;;4.13;;
83465;SDS011;73393;51.946;20.140;2024-02-04T09:02:07;10.87;;;3.97;;
83465;SDS011;73393;51.946;20.140;2024-02-04T09:04:33;7.90;;;3.70;;
83465;SDS011;73393;51.946;20.140;2024-02-04T09:07:05;13.20;;;4.73;;
83465;SDS011;73393;51.946;20.140;2024-02-04T09:09:31;6.73;;;2.83;;
83465;SDS011;73393;51.946;20.140;2024-02-04T09:11:57;7.60;;;2.73;;
83465;SDS011;73393;51.946;20.140;2024-02-04T09:14:22;9.23;;;4.03;;
83465;SDS011;73393;51.946;20.140;2024-02-04T09:16:48;10.67;;;3.50;;
83465;SDS011;73393;51.946;20.140;2024-02-04T09:19:13;16.30;;;4.87;;
83465;SDS011;73393;51.946;20.140;2024-02-04T09:21:39;10.90;;;4.50;;
83465;SDS011;73393;51.946;20.140;2024-02-04T09:24:05;11.03;;;3.47;;
83465;SDS011;73393;51.946;20.140;2024-02-04T09:26:30;9.73;;;3.93;;
83465;SDS011;73393;51.946;20.140;2024-02-04T09:28:56;11.97;;;3.43;;
83465;SDS011;73393;51.946;20.140;2024-02-04T09:31:22;11.77;;;5.20;;
83465;SDS011;73393;51.946;20.140;2024-02-04T09:33:47;9.97;;;3.80;;
83465;SDS011;73393;51.946;20.140;2024-02-04T09:36:13;12.07;;;3.50;;
83465;SDS011;73393;51.946;20.140;2024-02-04T09:38:39;9.40;;;4.70;;
83465;SDS011;73393;51.946;20.140;2024-02-04T09:41:05;9.63;;;3.20;;
83465;SDS011;73393;51.946;20.140;2024-02-04T09:43:34;9.60;;;4.47;;
83465;SDS011;73393;51.946;20.140;2024-02-04T09:46:01;7.03;;;2.67;;
83465;SDS011;73393;51.946;20.140;2024-02-04T09:48:29;5.37;;;3.27;;
83465;SDS011;73393;51.946;20.140;2024-02-04T09:50:57;15.20;;;4.03;;
83465;SDS011;73393;51.946;20.140;2024-02-04T09:53:27;11.00;;;3.90;;
83465;SDS011;73393;51.946;20.140;2024-02-04T09:56:03;15.03;;;5.97;;
83465;SDS011;73393;51.946;20.140;2024-02-04T09:58:31;17.77;;;7.60;;
83465;SDS011;73393;51.946;20.140;2024-02-04T10:00:58;28.33;;;8.80;;
83465;SDS011;73393;51.946;20.140;2024-02-04T10:03:25;24.63;;;7.63;;
83465;SDS011;73393;51.946;20.140;2024-02-04T10:05:51;12.27;;;5.07;;
83465;SDS011;73393;51.946;20.140;2024-02-04T10:08:20;19.97;;;6.93;;
83465;SDS011;73393;51.946;20.140;2024-02-04T10:10:46;17.43;;;6.57;;
83465;SDS011;73393;51.946;20.140;2024-02-04T10:13:14;19.60;;;6.80;;
83465;SDS011;73393;51.946;20.140;2024-02-04T10:15:39;9.97;;;3.87;;
83465;SDS011;73393;51.946;20.140;2024-02-04T10:18:07;11.83;;;4.97;;
83465;SDS011;73393;51.946;20.140;2024-02-04T10:20:33;9.33;;;4.53;;
83465;SDS011;73393;51.946;20.140;2024-02-04T10:22:59;11.87;;;6.90;;
83465;SDS011;73393;51.946;20.140;2024-02-04T10:25:25;13.23;;;5.23;;
83465;SDS011;73393;51.946;20.140;2024-02-04T10:27:51;11.57;;;4.60;;
83465;SDS011;73393;51.946;20.140;2024-02-04T10:30:20;11.27;;;4.73;;
83465;SDS011;73393;51.946;20.140;2024-02-04T10:32:46;10.10;;;5.23;;
83465;SDS011;73393;51.946;20.140;2024-02-04T10:35:15;13.67;;;5.63;;
83465;SDS011;73393;51.946;20.140;2024-02-04T10:37:43;17.40;;;6.03;;
83465;SDS011;73393;51.946;20.140;2024-02-04T10:40:11;12.53;;;4.97;;
83465;SDS011;73393;51.946;20.140;2024-02-04T10:42:37;11.87;;;4.93;;
83465;SDS011;73393;51.946;20.140;2024-02-04T10:45:07;16.17;;;7.13;;
83465;SDS011;73393;51.946;20.140;2024-02-04T10:47:36;12.73;;;6.10;;
83465;SDS011;73393;51.946;20.140;2024-02-04T10:50:03;11.07;;;4.70;;
83465;SDS011;73393;51.946;20.140;2024-02-04T10:52:32;11.57;;;4.10;;
83465;SDS011;73393;51.946;20.140;2024-02-04T10:55:03;10.63;;;4.67;;
83465;SDS011;73393;51.946;20.140;2024-02-04T10:57:33;12.32;;;4.50;;
83465;SDS011;73393;51.946;20.140;2024-02-04T11:00:00;9.37;;;4.40;;
83465;SDS011;73393;51.946;20.140;2024-02-04T11:02:29;9.77;;;4.27;;
83465;SDS011;73393;51.946;20.140;2024-02-04T11:04:59;8.87;;;4.07;;
83465;SDS011;73393;51.946;20.140;2024-02-04T11:07:28;10.00;;;4.67;;
83465;SDS011;73393;51.946;20.140;2024-02-04T11:10:00;11.27;;;4.10;;
83465;SDS011;73393;51.946;20.140;2024-02-04T11:12:27;13.10;;;5.03;;
83465;SDS011;73393;51.946;20.140;2024-02-04T11:14:54;12.17;;;4.53;;
83465;SDS011;73393;51.946;20.140;2024-02-04T11:20:43;11.70;;;7.27;;
83465;SDS011;73393;51.946;20.140;2024-02-04T11:26:17;12.17;;;6.47;;
83465;SDS011;73393;51.946;20.140;2024-02-04T11:28:44;11.53;;;5.20;;
83465;SDS011;73393;51.946;20.140;2024-02-04T11:31:18;16.47;;;6.47;;
83465;SDS011;73393;51.946;20.140;2024-02-04T11:33:44;13.13;;;5.40;;
83465;SDS011;73393;51.946;20.140;2024-02-04T11:36:13;12.77;;;6.07;;
83465;SDS011;73393;51.946;20.140;2024-02-04T11:38:40;20.03;;;11.13;;
83465;SDS011;73393;51.946;20.140;2024-02-04T11:41:06;16.97;;;7.77;;
83465;SDS011;73393;51.946;20.140;2024-02-04T11:43:32;10.03;;;5.50;;
83465;SDS011;73393;51.946;20.140;2024-02-04T11:46:02;14.43;;;5.33;;
83465;SDS011;73393;51.946;20.140;2024-02-04T11:48:29;16.33;;;5.17;;
83465;SDS011;73393;51.946;20.140;2024-02-04T11:50:57;17.60;;;6.53;;
83465;SDS011;73393;51.946;20.140;2024-02-04T11:53:25;9.57;;;4.80;;
83465;SDS011;73393;51.946;20.140;2024-02-04T11:55:54;10.67;;;4.63;;
83465;SDS011;73393;51.946;20.140;2024-02-04T11:58:20;12.67;;;4.07;;
83465;SDS011;73393;51.946;20.140;2024-02-04T12:00:47;14.97;;;4.20;;
83465;SDS011;73393;51.946;20.140;2024-02-04T12:03:14;12.00;;;5.67;;
83465;SDS011;73393;51.946;20.140;2024-02-04T12:05:39;12.13;;;4.77;;
83465;SDS011;73393;51.946;20.140;2024-02-04T12:08:06;11.93;;;5.20;;
83465;SDS011;73393;51.946;20.140;2024-02-04T12:10:36;11.97;;;5.87;;
83465;SDS011;73393;51.946;20.140;2024-02-04T12:13:02;15.90;;;5.37;;
83465;SDS011;73393;51.946;20.140;2024-02-04T12:15:29;10.47;;;4.83;;
83465;SDS011;73393;51.946;20.140;2024-02-04T12:18:10;15.43;;;6.63;;
83465;SDS011;73393;51.946;20.140;2024-02-04T12:20:36;24.23;;;7.53;;
83465;SDS011;73393;51.946;20.140;2024-02-04T12:23:03;29.80;;;13.67;;
83465;SDS011;73393;51.946;20.140;2024-02-04T12:25:29;21.47;;;11.50;;
83465;SDS011;73393;51.946;20.140;2024-02-04T12:27:57;23.50;;;14.00;;
83465;SDS011;73393;51.946;20.140;2024-02-04T12:30:23;21.77;;;10.80;;
83465;SDS011;73393;51.946;20.140;2024-02-04T12:32:58;12.93;;;8.20;;
83465;SDS011;73393;51.946;20.140;2024-02-04T12:35:25;18.83;;;7.67;;
83465;SDS011;73393;51.946;20.140;2024-02-04T12:37:52;20.83;;;9.27;;
83465;SDS011;73393;51.946;20.140;2024-02-04T12:40:22;30.07;;;13.20;;
83465;SDS011;73393;51.946;20.140;2024-02-04T12:42:59;23.80;;;9.87;;
83465;SDS011;73393;51.946;20.140;2024-02-04T12:45:26;20.43;;;9.20;;
83465;SDS011;73393;51.946;20.140;2024-02-04T12:47:53;19.73;;;7.67;;
83465;SDS011;73393;51.946;20.140;2024-02-04T12:50:21;14.47;;;5.27;;
83465;SDS011;73393;51.946;20.140;2024-02-04T12:52:47;9.10;;;4.83;;
83465;SDS011;73393;51.946;20.140;2024-02-04T12:55:21;9.47;;;3.93;;
83465;SDS011;73393;51.946;20.140;2024-02-04T12:57:48;9.83;;;4.90;;
83465;SDS011;73393;51.946;20.140;2024-02-04T13:00:17;15.07;;;6.73;;
83465;SDS011;73393;51.946;20.140;2024-02-04T13:02:43;6.27;;;4.23;;
83465;SDS011;73393;51.946;20.140;2024-02-04T13:05:09;11.33;;;3.43;;
83465;SDS011;73393;51.946;20.140;2024-02-04T13:07:35;7.43;;;3.87;;
83465;SDS011;73393;51.946;20.140;2024-02-04T13:10:01;7.57;;;3.47;;
83465;SDS011;73393;51.946;20.140;2024-02-04T13:12:28;7.90;;;3.17;;
83465;SDS011;73393;51.946;20.140;2024-02-04T13:14:54;6.80;;;2.97;;
83465;SDS011;73393;51.946;20.140;2024-02-04T13:17:20;6.63;;;3.00;;
83465;SDS011;73393;51.946;20.140;2024-02-04T13:19:45;8.20;;;2.73;;
83465;SDS011;73393;51.946;20.140;2024-02-04T13:22:11;5.67;;;3.10;;
83465;SDS011;73393;51.946;20.140;2024-02-04T13:24:39;6.33;;;2.60;;
83465;SDS011;73393;51.946;20.140;2024-02-04T13:27:05;7.90;;;2.53;;
83465;SDS011;73393;51.946;20.140;2024-02-04T13:29:32;5.13;;;2.40;;
83465;SDS011;73393;51.946;20.140;2024-02-04T13:31:59;5.43;;;2.33;;
83465;SDS011;73393;51.946;20.140;2024-02-04T13:34:25;6.03;;;3.10;;
83465;SDS011;73393;51.946;20.140;2024-02-04T13:36:50;11.07;;;3.70;;
83465;SDS011;73393;51.946;20.140;2024-02-04T13:39:16;9.77;;;3.20;;
83465;SDS011;73393;51.946;20.140;2024-02-04T13:41:43;8.90;;;3.00;;
83465;SDS011;73393;51.946;20.140;2024-02-04T13:44:09;4.30;;;2.00;;
83465;SDS011;73393;51.946;20.140;2024-02-04T13:46:35;6.10;;;2.30;;
83465;SDS011;73393;51.946;20.140;2024-02-04T13:49:00;4.97;;;1.87;;
83465;SDS011;73393;51.946;20.140;2024-02-04T13:51:27;10.83;;;3.97;;
83465;SDS011;73393;51.946;20.140;2024-02-04T13:53:54;6.17;;;2.80;;
83465;SDS011;73393;51.946;20.140;2024-02-04T13:56:20;7.40;;;3.80;;
83465;SDS011;73393;51.946;20.140;2024-02-04T13:58:46;6.63;;;3.43;;
83465;SDS011;73393;51.946;20.140;2024-02-04T14:01:11;7.07;;;2.90;;
83465;SDS011;73393;51.946;20.140;2024-02-04T14:03:38;8.50;;;3.10;;
83465;SDS011;73393;51.946;20.140;2024-02-04T14:06:04;6.40;;;2.63;;
83465;SDS011;73393;51.946;20.140;2024-02-04T14:08:29;6.67;;;2.80;;
83465;SDS011;73393;51.946;20.140;2024-02-04T14:10:55;7.03;;;3.10;;
83465;SDS011;73393;51.946;20.140;2024-02-04T14:13:21;5.83;;;1.90;;
83465;SDS011;73393;51.946;20.140;2024-02-04T14:15:46;6.83;;;3.43;;
83465;SDS011;73393;51.946;20.140;2024-02-04T14:18:12;7.57;;;3.13;;
83465;SDS011;73393;51.946;20.140;2024-02-04T14:20:37;6.63;;;3.83;;
83465;SDS011;73393;51.946;20.140;2024-02-04T14:23:05;9.83;;;5.00;;
83465;SDS011;73393;51.946;20.140;2024-02-04T14:25:30;10.97;;;5.53;;
83465;SDS011;73393;51.946;20.140;2024-02-04T14:27:56;7.27;;;3.33;;
83465;SDS011;73393;51.946;20.140;2024-02-04T14:30:21;38.50;;;16.13;;
83465;SDS011;73393;51.946;20.140;2024-02-04T14:32:47;38.47;;;17.47;;
83465;SDS011;73393;51.946;20.140;2024-02-04T14:35:13;47.10;;;22.63;;
83465;SDS011;73393;51.946;20.140;2024-02-04T14:37:38;46.97;;;17.73;;